createdAt,value
2019-06-27T00:00:59.369Z,12.80
2019-06-27T00:03:25.455Z,13.20
2019-06-27T00:05:51.539Z,11.50
2019-06-27T00:08:17.579Z,12.23
2019-06-27T00:10:43.933Z,12.18
2019-06-27T00:13:10.301Z,11.57
2019-06-27T00:15:36.357Z,15.23
2019-06-27T00:18:02.501Z,15.65
2019-06-27T00:20:28.675Z,15.88
2019-06-27T00:22:54.827Z,16.23
2019-06-27T00:25:20.897Z,15.93
2019-06-27T00:27:47.021Z,16.15
2019-06-27T00:30:13.475Z,15.53
2019-06-27T00:32:39.559Z,14.50
2019-06-27T00:35:06.415Z,15.13
2019-06-27T00:37:32.536Z,14.45
2019-06-27T00:39:58.584Z,14.35
2019-06-27T00:42:24.715Z,14.23
2019-06-27T00:44:50.771Z,13.03
2019-06-27T00:47:16.813Z,13.28
2019-06-27T00:49:43.957Z,14.98
2019-06-27T00:52:10.026Z,15.15
2019-06-27T00:54:36.175Z,16.50
2019-06-27T00:57:13.597Z,15.25
2019-06-27T00:59:30.395Z,14.35
2019-06-27T01:01:56.517Z,13.78
2019-06-27T01:04:22.674Z,14.18
2019-06-27T01:06:48.827Z,13.55
2019-06-27T01:09:14.894Z,13.30
2019-06-27T01:11:41.031Z,14.78
2019-06-27T01:14:07.106Z,14.47
2019-06-27T01:16:33.171Z,13.30
2019-06-27T01:19:00.417Z,13.53
2019-06-27T01:21:26.540Z,12.00
2019-06-27T01:23:52.619Z,12.10
2019-06-27T01:26:18.659Z,11.60
2019-06-27T01:28:44.733Z,11.55
2019-06-27T01:31:10.840Z,10.95
2019-06-27T01:33:36.917Z,11.73
2019-06-27T01:36:03.126Z,11.55
2019-06-27T01:38:29.234Z,12.28
2019-06-27T01:40:55.297Z,12.07
2019-06-27T01:43:21.338Z,12.35
2019-06-27T01:45:52.076Z,13.85
2019-06-27T01:48:18.103Z,13.18
2019-06-27T01:50:44.147Z,13.70
2019-06-27T01:53:10.321Z,13.08
2019-06-27T01:55:36.380Z,12.78
2019-06-27T01:58:02.425Z,12.78
2019-06-27T02:00:28.770Z,13.58
2019-06-27T02:02:54.819Z,13.10
2019-06-27T02:05:20.972Z,12.33
2019-06-27T02:07:47.037Z,13.30
2019-06-27T02:10:13.588Z,13.85
2019-06-27T02:12:39.741Z,15.08
2019-06-27T02:15:06.786Z,15.38
2019-06-27T02:17:33.030Z,15.88
2019-06-27T02:19:59.120Z,16.10
2019-06-27T02:22:25.269Z,17.02
2019-06-27T02:24:51.316Z,15.53
2019-06-27T02:27:17.378Z,15.58
2019-06-27T02:29:43.453Z,15.20
2019-06-27T02:32:09.515Z,15.25
2019-06-27T02:34:35.630Z,15.00
2019-06-27T02:37:01.679Z,14.98
2019-06-27T02:39:27.736Z,15.43
2019-06-27T02:41:53.775Z,15.63
2019-06-27T02:44:19.817Z,15.88
2019-06-27T02:46:45.893Z,14.30
2019-06-27T02:49:12.034Z,14.18
2019-06-27T02:51:38.074Z,14.05
2019-06-27T02:54:04.129Z,12.95
2019-06-27T02:56:30.154Z,12.75
2019-06-27T02:58:56.223Z,12.70
2019-06-27T03:01:22.379Z,11.85
2019-06-27T03:03:48.421Z,12.53
2019-06-27T03:06:14.465Z,11.53
2019-06-27T03:08:40.552Z,12.60
2019-06-27T03:11:06.608Z,12.35
2019-06-27T03:13:32.683Z,12.47
2019-06-27T03:15:59.551Z,12.65
2019-06-27T03:18:25.702Z,12.25
2019-06-27T03:20:51.755Z,13.50
2019-06-27T03:23:17.840Z,14.03
2019-06-27T03:25:43.943Z,13.55
2019-06-27T03:28:10.086Z,12.85
2019-06-27T03:30:36.299Z,13.50
2019-06-27T03:33:02.535Z,14.28
2019-06-27T03:35:28.655Z,15.08
2019-06-27T03:37:54.689Z,14.53
2019-06-27T03:40:20.863Z,13.53
2019-06-27T03:42:47.013Z,14.00
2019-06-27T03:45:15.934Z,14.10
2019-06-27T03:47:41.098Z,13.60
2019-06-27T03:50:07.295Z,13.65
2019-06-27T03:52:33.368Z,14.25
2019-06-27T03:55:00.835Z,16.27
2019-06-27T03:57:26.953Z,15.58
2019-06-27T03:59:53.028Z,15.00
2019-06-27T04:02:21.051Z,16.50
2019-06-27T04:04:47.177Z,15.68
2019-06-27T04:07:13.309Z,14.87
2019-06-27T04:09:39.441Z,14.00
2019-06-27T04:12:05.584Z,13.62
2019-06-27T04:14:31.696Z,13.05
2019-06-27T04:16:57.903Z,12.75
2019-06-27T04:19:24.060Z,12.65
2019-06-27T04:21:50.217Z,12.75
2019-06-27T04:24:16.275Z,13.22
2019-06-27T04:26:42.527Z,13.00
2019-06-27T04:29:08.612Z,12.50
2019-06-27T04:31:34.777Z,13.90
2019-06-27T04:34:00.847Z,14.40
2019-06-27T04:36:26.891Z,13.68
2019-06-27T04:38:53.002Z,12.78
2019-06-27T04:41:19.127Z,12.40
2019-06-27T04:43:45.284Z,11.18
2019-06-27T04:46:11.333Z,11.68
2019-06-27T04:48:37.533Z,10.70
2019-06-27T04:51:03.664Z,11.65
2019-06-27T04:53:31.654Z,11.22
2019-06-27T04:55:57.792Z,12.98
2019-06-27T04:58:23.941Z,12.15
2019-06-27T05:00:50.082Z,11.35
2019-06-27T05:03:16.231Z,10.38
2019-06-27T05:05:42.330Z,10.23
2019-06-27T05:08:08.418Z,9.38
2019-06-27T05:10:34.506Z,9.13
2019-06-27T05:13:01.079Z,8.73
2019-06-27T05:15:28.095Z,8.53
2019-06-27T05:17:57.161Z,10.23
2019-06-27T05:20:23.648Z,8.73
2019-06-27T05:22:50.404Z,8.85
2019-06-27T05:25:29.773Z,8.05
2019-06-27T05:27:55.979Z,6.80
2019-06-27T05:30:22.359Z,7.00
2019-06-27T05:32:48.491Z,6.87
2019-06-27T05:35:14.579Z,7.58
2019-06-27T05:37:40.655Z,8.45
2019-06-27T05:40:07.624Z,7.97
2019-06-27T05:42:33.677Z,7.85
2019-06-27T05:44:59.722Z,8.75
2019-06-27T05:47:25.787Z,7.92
2019-06-27T05:49:51.824Z,7.33
2019-06-27T05:52:17.873Z,7.87
2019-06-27T05:54:43.947Z,8.08
2019-06-27T05:57:10.060Z,8.08
2019-06-27T05:59:36.119Z,7.10
2019-06-27T06:02:02.204Z,9.18
2019-06-27T06:04:28.317Z,11.95
2019-06-27T06:06:54.425Z,11.97
2019-06-27T06:09:20.693Z,11.60
2019-06-27T06:11:46.867Z,11.90
2019-06-27T06:14:12.892Z,12.65
2019-06-27T06:16:39.047Z,13.15
2019-06-27T06:19:05.094Z,16.48
2019-06-27T06:21:31.236Z,18.87
2019-06-27T06:23:57.301Z,18.67
2019-06-27T06:26:23.323Z,19.37
2019-06-27T06:28:49.398Z,19.67
2019-06-27T06:31:15.478Z,19.67
2019-06-27T06:33:41.541Z,17.80
2019-06-27T06:36:07.738Z,19.62
2019-06-27T06:38:33.761Z,17.23
2019-06-27T06:40:59.792Z,18.80
2019-06-27T06:43:25.829Z,21.12
2019-06-27T06:45:51.906Z,20.68
2019-06-27T06:48:17.952Z,22.27
2019-06-27T06:50:44.009Z,22.02
2019-06-27T06:53:10.054Z,22.48
2019-06-27T06:55:36.143Z,21.57
2019-06-27T06:58:02.315Z,21.97
2019-06-27T07:00:28.570Z,20.97
2019-06-27T07:02:54.709Z,21.97
2019-06-27T07:05:20.749Z,22.87
2019-06-27T07:07:46.822Z,22.35
2019-06-27T07:10:14.338Z,23.05
2019-06-27T07:12:40.405Z,22.65
2019-06-27T07:15:06.859Z,24.80
2019-06-27T07:17:32.934Z,22.95
2019-06-27T07:19:58.962Z,23.15
2019-06-27T07:22:25.023Z,21.95
2019-06-27T07:24:51.059Z,23.22
2019-06-27T07:27:17.128Z,23.65
2019-06-27T07:29:43.170Z,23.45
2019-06-27T07:32:09.220Z,22.58
2019-06-27T07:34:35.439Z,22.67
2019-06-27T07:37:01.458Z,22.67
2019-06-27T07:39:27.622Z,23.77
2019-06-27T07:41:53.754Z,22.52
2019-06-27T07:44:20.464Z,22.52
2019-06-27T07:46:46.650Z,22.73
2019-06-27T07:49:12.695Z,23.40
2019-06-27T07:51:38.735Z,24.20
2019-06-27T07:54:04.812Z,23.67
2019-06-27T07:56:30.864Z,23.62
2019-06-27T07:58:56.895Z,25.97
2019-06-27T08:01:34.573Z,24.12
2019-06-27T08:03:50.887Z,22.98
2019-06-27T08:06:16.949Z,22.45
2019-06-27T08:08:42.971Z,22.90
2019-06-27T08:11:09.040Z,23.22
2019-06-27T08:13:35.203Z,21.82
2019-06-27T08:16:01.243Z,21.70
2019-06-27T08:18:28.421Z,21.52
2019-06-27T08:20:54.655Z,22.02
2019-06-27T08:23:20.813Z,20.82
2019-06-27T08:25:46.861Z,20.23
2019-06-27T08:28:12.921Z,20.90
2019-06-27T08:30:39.007Z,20.12
2019-06-27T08:33:05.047Z,19.70
2019-06-27T08:35:33.494Z,21.17
2019-06-27T08:37:59.135Z,19.30
2019-06-27T08:40:25.277Z,19.12
2019-06-27T08:42:51.335Z,19.10
2019-06-27T08:45:17.489Z,17.80
2019-06-27T08:47:43.616Z,18.00
2019-06-27T08:50:09.883Z,17.50
2019-06-27T08:52:36.025Z,18.50
2019-06-27T08:55:06.018Z,17.80
2019-06-27T08:57:32.058Z,17.48
2019-06-27T08:59:58.121Z,18.27
2019-06-27T09:02:24.185Z,16.87
2019-06-27T09:05:57.643Z,16.57
2019-06-27T09:08:23.656Z,17.48
2019-06-27T09:10:49.710Z,17.10
2019-06-27T09:13:15.755Z,17.20
2019-06-27T09:15:41.829Z,17.37
2019-06-27T09:18:07.878Z,16.55
2019-06-27T09:20:33.983Z,16.40
2019-06-27T09:23:00.245Z,16.23
2019-06-27T09:25:26.344Z,16.50
2019-06-27T09:27:52.381Z,15.95
2019-06-27T09:30:18.600Z,16.30
2019-06-27T09:32:44.781Z,15.23
2019-06-27T09:35:11.554Z,15.75
2019-06-27T09:37:37.730Z,15.43
2019-06-27T09:40:05.612Z,15.45
2019-06-27T09:42:31.715Z,15.45
2019-06-27T09:44:57.807Z,15.80
2019-06-27T09:47:23.861Z,16.60
2019-06-27T09:49:49.921Z,14.45
2019-06-27T09:52:16.077Z,16.32
2019-06-27T09:54:42.140Z,14.83
2019-06-27T09:57:08.205Z,15.68
2019-06-27T09:59:34.248Z,14.65
2019-06-27T10:02:00.465Z,16.20
2019-06-27T10:04:26.554Z,15.20
2019-06-27T10:06:52.618Z,13.80
2019-06-27T10:09:18.660Z,14.33
2019-06-27T10:11:44.812Z,14.40
2019-06-27T10:14:10.872Z,16.75
2019-06-27T10:16:36.899Z,14.95
2019-06-27T10:19:03.067Z,15.08
2019-06-27T10:21:29.145Z,15.23
2019-06-27T10:23:55.191Z,15.72
2019-06-27T10:26:21.242Z,15.80
2019-06-27T10:28:47.406Z,17.12
2019-06-27T10:31:13.438Z,17.40
2019-06-27T10:33:39.464Z,16.12
2019-06-27T10:36:05.523Z,14.78
2019-06-27T10:38:31.585Z,15.93
2019-06-27T10:40:57.721Z,16.15
2019-06-27T10:43:23.765Z,16.70
2019-06-27T10:45:49.832Z,16.48
2019-06-27T10:48:15.888Z,16.15
2019-06-27T10:50:41.979Z,15.88
2019-06-27T10:53:08.063Z,15.50
2019-06-27T10:55:34.121Z,14.35
2019-06-27T10:58:00.169Z,14.68
2019-06-27T11:00:26.238Z,14.43
2019-06-27T11:02:52.303Z,14.05
2019-06-27T11:05:18.496Z,13.70
2019-06-27T11:07:44.655Z,15.30
2019-06-27T11:10:11.021Z,14.45
2019-06-27T11:12:38.151Z,15.05
2019-06-27T11:15:08.609Z,12.95
2019-06-27T11:17:34.771Z,13.32
2019-06-27T11:20:00.835Z,13.15
2019-06-27T11:22:26.891Z,14.58
2019-06-27T11:24:53.120Z,14.45
2019-06-27T11:27:19.277Z,13.88
2019-06-27T11:29:45.383Z,14.10
2019-06-27T11:32:11.469Z,13.35
2019-06-27T11:34:37.520Z,13.15
2019-06-27T11:37:03.559Z,12.95
2019-06-27T11:39:29.610Z,13.48
2019-06-27T11:41:55.661Z,14.50
2019-06-27T11:44:21.723Z,13.32
2019-06-27T11:46:47.738Z,13.90
2019-06-27T11:49:13.821Z,13.10
2019-06-27T11:51:39.858Z,14.93
2019-06-27T11:54:06.047Z,13.93
2019-06-27T11:56:32.073Z,14.20
2019-06-27T11:58:58.142Z,14.35
2019-06-27T12:01:24.210Z,12.82
2019-06-27T12:03:50.249Z,14.18
2019-06-27T12:06:16.290Z,13.35
2019-06-27T12:08:42.351Z,13.93
2019-06-27T12:11:08.411Z,13.38
2019-06-27T12:13:34.497Z,13.15
2019-06-27T12:16:00.547Z,13.90
2019-06-27T12:18:26.620Z,13.93
2019-06-27T12:20:52.811Z,13.72
2019-06-27T12:23:18.841Z,13.28
2019-06-27T12:25:44.902Z,12.85
2019-06-27T12:28:10.975Z,14.03
2019-06-27T12:30:37.059Z,11.83
2019-06-27T12:33:03.137Z,12.50
2019-06-27T12:35:29.157Z,12.58
2019-06-27T12:37:55.201Z,11.80
2019-06-27T12:40:22.104Z,12.82
2019-06-27T12:42:48.474Z,11.90
2019-06-27T12:45:15.075Z,11.75
2019-06-27T12:47:41.382Z,11.03
2019-06-27T12:50:08.403Z,10.08
2019-06-27T12:52:34.485Z,11.25
2019-06-27T12:55:00.587Z,10.20
2019-06-27T12:57:26.669Z,10.15
2019-06-27T12:59:52.848Z,10.15
2019-06-27T13:02:18.896Z,10.80
2019-06-27T13:04:44.929Z,10.50
2019-06-27T13:07:11.109Z,10.85
2019-06-27T13:09:37.153Z,10.30
2019-06-27T13:12:25.007Z,10.58
2019-06-27T13:14:51.141Z,10.50
2019-06-27T13:17:17.161Z,11.00
2019-06-27T13:19:43.200Z,9.03
2019-06-27T13:22:09.242Z,10.40
2019-06-27T13:24:35.298Z,11.10
2019-06-27T13:27:01.431Z,11.20
2019-06-27T13:29:27.481Z,10.72
2019-06-27T13:31:53.557Z,10.30
2019-06-27T13:34:19.617Z,11.08
2019-06-27T13:36:45.690Z,12.53
2019-06-27T13:39:11.850Z,11.18
2019-06-27T13:41:37.900Z,12.58
2019-06-27T13:44:04.570Z,11.63
2019-06-27T13:46:30.609Z,12.93
2019-06-27T13:48:56.655Z,13.58
2019-06-27T13:51:22.717Z,13.70
2019-06-27T13:53:48.783Z,12.60
2019-06-27T13:56:14.880Z,13.05
2019-06-27T13:58:40.938Z,14.23
2019-06-27T14:01:10.665Z,13.72
2019-06-27T14:03:48.620Z,13.48
2019-06-27T14:06:03.119Z,13.70
2019-06-27T14:08:29.259Z,13.95
2019-06-27T14:10:55.319Z,14.10
2019-06-27T14:13:21.440Z,14.80
2019-06-27T14:15:47.473Z,15.60
2019-06-27T14:18:13.573Z,14.98
2019-06-27T14:20:39.621Z,15.48
2019-06-27T14:23:05.701Z,15.08
2019-06-27T14:25:31.799Z,16.17
2019-06-27T14:27:57.846Z,14.83
2019-06-27T14:30:24.412Z,15.85
2019-06-27T14:32:53.290Z,16.25
2019-06-27T14:35:18.449Z,16.05
2019-06-27T14:37:44.596Z,15.75
2019-06-27T14:40:11.311Z,16.73
2019-06-27T14:42:37.443Z,16.40
2019-06-27T14:45:05.423Z,18.20
2019-06-27T14:47:31.523Z,17.23
2019-06-27T14:49:57.628Z,16.97
2019-06-27T14:52:23.786Z,18.15
2019-06-27T14:54:49.844Z,18.98
2019-06-27T14:57:15.898Z,18.57
2019-06-27T14:59:41.936Z,19.15
2019-06-27T15:02:08.094Z,19.62
2019-06-27T15:04:34.143Z,20.08
2019-06-27T15:07:00.180Z,19.23
2019-06-27T15:09:26.219Z,19.17
2019-06-27T15:11:52.280Z,18.45
2019-06-27T15:14:18.365Z,19.55
2019-06-27T15:16:44.422Z,18.75
2019-06-27T15:19:10.472Z,19.07
2019-06-27T15:21:36.516Z,20.32
2019-06-27T15:24:02.775Z,19.23
2019-06-27T15:26:28.858Z,20.40
2019-06-27T15:28:54.907Z,19.80
2019-06-27T15:31:22.372Z,19.05
2019-06-27T15:33:48.712Z,20.85
2019-06-27T15:36:14.927Z,17.55
2019-06-27T15:38:41.089Z,18.62
2019-06-27T15:41:07.149Z,18.23
2019-06-27T15:43:33.275Z,17.67
2019-06-27T15:45:59.400Z,17.20
2019-06-27T15:48:25.507Z,18.25
2019-06-27T15:50:51.632Z,19.40
2019-06-27T15:53:17.672Z,20.52
2019-06-27T15:55:45.663Z,18.57
2019-06-27T15:58:11.720Z,20.75
2019-06-27T16:00:39.422Z,18.50
2019-06-27T16:03:05.701Z,17.55
2019-06-27T16:05:32.082Z,18.87
2019-06-27T16:07:58.200Z,18.00
2019-06-27T16:10:24.315Z,17.48
2019-06-27T16:12:50.337Z,18.90
2019-06-27T16:15:16.617Z,18.17
2019-06-27T16:17:42.701Z,17.50
2019-06-27T16:20:10.472Z,18.50
2019-06-27T16:22:36.644Z,18.02
2019-06-27T16:25:04.390Z,17.52
2019-06-27T16:27:30.504Z,18.60
2019-06-27T16:29:56.599Z,18.40
2019-06-27T16:32:22.631Z,17.20
2019-06-27T16:34:48.749Z,16.37
2019-06-27T16:37:14.929Z,17.60
2019-06-27T16:39:41.003Z,17.48
2019-06-27T16:42:07.099Z,15.72
2019-06-27T16:44:33.256Z,15.68
2019-06-27T16:46:59.408Z,15.13
2019-06-27T16:49:25.469Z,13.03
2019-06-27T16:51:51.513Z,13.72
2019-06-27T16:54:17.584Z,14.10
2019-06-27T16:56:43.613Z,12.03
2019-06-27T16:59:09.675Z,12.25
2019-06-27T17:01:35.872Z,12.35
2019-06-27T17:04:02.083Z,11.43
2019-06-27T17:06:40.879Z,11.83
2019-06-27T17:08:56.084Z,10.65
2019-06-27T17:11:22.173Z,11.38
2019-06-27T17:13:48.309Z,10.35
2019-06-27T17:16:14.359Z,10.38
2019-06-27T17:18:40.408Z,9.90
2019-06-27T17:21:06.473Z,9.93
2019-06-27T17:23:32.523Z,10.08
2019-06-27T17:25:58.618Z,8.75
2019-06-27T17:28:24.663Z,10.43
2019-06-27T17:30:50.760Z,9.10
2019-06-27T17:33:17.871Z,8.38
2019-06-27T17:35:43.982Z,8.38
2019-06-27T17:38:10.078Z,8.65
2019-06-27T17:40:36.280Z,8.08
2019-06-27T17:43:02.330Z,8.55
2019-06-27T17:45:28.386Z,7.92
2019-06-27T17:47:54.544Z,8.70
2019-06-27T17:50:20.699Z,8.08
2019-06-27T17:52:46.850Z,7.92
2019-06-27T17:55:12.989Z,7.65
2019-06-27T17:57:39.444Z,7.33
2019-06-27T18:00:05.893Z,7.20
2019-06-27T18:02:31.973Z,6.70
2019-06-27T18:04:58.136Z,6.78
2019-06-27T18:07:24.210Z,6.47
2019-06-27T18:09:50.291Z,10.00
2019-06-27T18:12:16.367Z,6.40
2019-06-27T18:14:42.420Z,5.58
2019-06-27T18:17:08.468Z,5.62
2019-06-27T18:19:34.521Z,5.40
2019-06-27T18:22:00.574Z,5.80
2019-06-27T18:24:26.627Z,5.30
2019-06-27T18:26:52.698Z,5.60
2019-06-27T18:29:18.745Z,5.87
2019-06-27T18:31:44.793Z,5.92
2019-06-27T18:34:10.925Z,5.53
2019-06-27T18:36:36.985Z,5.30
2019-06-27T18:39:04.508Z,4.80
2019-06-27T18:41:30.554Z,4.50
2019-06-27T18:43:56.628Z,4.83
2019-06-27T18:46:22.690Z,4.10
2019-06-27T18:48:51.829Z,4.60
2019-06-27T18:51:16.828Z,4.25
2019-06-27T18:53:42.848Z,4.25
2019-06-27T18:56:08.891Z,4.12
2019-06-27T18:58:35.100Z,4.17
2019-06-27T19:01:01.135Z,4.05
2019-06-27T19:03:27.249Z,4.50
2019-06-27T19:05:53.357Z,5.12
2019-06-27T19:08:19.389Z,5.10
2019-06-27T19:10:45.615Z,5.17
2019-06-27T19:13:11.665Z,3.80
2019-06-27T19:15:37.715Z,3.70
2019-06-27T19:18:05.784Z,3.70
2019-06-27T19:20:33.808Z,3.10
2019-06-27T19:23:01.879Z,3.35
2019-06-27T19:25:30.001Z,3.08
2019-06-27T19:27:56.077Z,2.90
2019-06-27T19:30:22.130Z,3.15
2019-06-27T19:32:48.194Z,2.77
2019-06-27T19:35:14.215Z,2.60
2019-06-27T19:37:40.379Z,2.70
2019-06-27T19:40:06.785Z,2.62
2019-06-27T19:42:32.905Z,2.17
2019-06-27T19:44:59.059Z,2.37
2019-06-27T19:47:25.120Z,2.87
2019-06-27T19:49:51.249Z,2.65
2019-06-27T19:52:17.292Z,2.75
2019-06-27T19:54:43.345Z,2.17
2019-06-27T19:57:09.400Z,2.62
2019-06-27T19:59:35.459Z,2.40
2019-06-27T20:02:01.526Z,2.58
2019-06-27T20:04:27.653Z,2.42
2019-06-27T20:06:53.749Z,2.87
2019-06-27T20:09:19.780Z,2.55
2019-06-27T20:11:45.838Z,2.90
2019-06-27T20:14:11.909Z,3.05
2019-06-27T20:16:37.939Z,2.80
2019-06-27T20:19:05.981Z,2.45
2019-06-27T20:21:31.952Z,2.90
2019-06-27T20:23:58.234Z,2.92
2019-06-27T20:26:24.420Z,3.55
2019-06-27T20:28:50.477Z,3.17
2019-06-27T20:31:16.540Z,3.50
2019-06-27T20:33:42.605Z,3.40
2019-06-27T20:36:08.820Z,3.40
2019-06-27T20:38:35.543Z,3.52
2019-06-27T20:41:01.953Z,3.00
2019-06-27T20:43:27.974Z,2.98
2019-06-27T20:45:55.069Z,2.90
2019-06-27T20:48:21.130Z,2.70
2019-06-27T20:50:47.168Z,2.10
2019-06-27T20:53:13.238Z,1.92
2019-06-27T20:55:39.274Z,1.92
2019-06-27T20:58:05.356Z,2.00
2019-06-27T21:00:31.401Z,2.47
2019-06-27T21:02:57.472Z,2.00
2019-06-27T21:05:23.499Z,2.80
2019-06-27T21:07:49.559Z,2.10
2019-06-27T21:10:17.226Z,2.22
2019-06-27T21:12:43.378Z,2.85
2019-06-27T21:15:10.003Z,2.20
2019-06-27T21:17:36.123Z,2.20
2019-06-27T21:20:04.685Z,1.90
2019-06-27T21:22:30.837Z,2.02
2019-06-27T21:24:56.896Z,2.12
2019-06-27T21:27:23.051Z,2.02
2019-06-27T21:29:49.117Z,2.30
2019-06-27T21:32:30.524Z,1.90
2019-06-27T21:34:43.128Z,1.82
2019-06-27T21:37:09.281Z,2.12
2019-06-27T21:39:35.473Z,1.90
2019-06-27T21:42:01.512Z,2.08
2019-06-27T21:44:27.549Z,1.80
2019-06-27T21:46:53.613Z,1.98
2019-06-27T21:49:19.795Z,1.82
2019-06-27T21:51:45.855Z,2.02
2019-06-27T21:54:12.012Z,2.20
2019-06-27T21:56:38.060Z,2.00
2019-06-27T21:59:04.085Z,2.47
2019-06-27T22:01:30.258Z,2.58
2019-06-27T22:03:56.289Z,2.50
2019-06-27T22:06:22.432Z,2.20
2019-06-27T22:08:48.475Z,2.20
2019-06-27T22:11:14.500Z,2.17
2019-06-27T22:13:40.594Z,2.40
2019-06-27T22:16:06.687Z,2.80
2019-06-27T22:18:32.739Z,2.77
2019-06-27T22:20:58.798Z,2.70
2019-06-27T22:23:24.842Z,2.60
2019-06-27T22:25:50.893Z,2.50
2019-06-27T22:28:16.957Z,2.72
2019-06-27T22:30:43.001Z,2.70
2019-06-27T22:33:09.062Z,2.67
2019-06-27T22:35:35.178Z,3.05
2019-06-27T22:38:20.150Z,2.67
2019-06-27T22:41:05.021Z,2.87
2019-06-27T22:43:49.320Z,3.00
2019-06-27T22:46:33.902Z,4.25
2019-06-27T22:48:59.871Z,3.10
2019-06-27T22:51:34.128Z,2.87
2019-06-27T22:54:02.544Z,2.75
2019-06-27T22:56:28.660Z,2.60
2019-06-27T22:58:54.709Z,3.27
2019-06-27T23:01:20.748Z,4.22
2019-06-27T23:03:46.789Z,2.83
2019-06-27T23:06:12.853Z,2.75
2019-06-27T23:08:38.868Z,2.58
2019-06-27T23:11:04.925Z,2.40
2019-06-27T23:13:30.982Z,2.60
2019-06-27T23:15:57.031Z,2.62
2019-06-27T23:18:23.291Z,2.77
2019-06-27T23:20:49.453Z,2.90
2019-06-27T23:23:15.530Z,2.77
2019-06-27T23:25:41.572Z,2.47
2019-06-27T23:28:07.741Z,2.67
2019-06-27T23:30:33.778Z,2.67
2019-06-27T23:33:05.815Z,2.52
2019-06-27T23:35:31.929Z,2.30
2019-06-27T23:37:58.002Z,2.85
2019-06-27T23:40:24.099Z,2.65
2019-06-27T23:42:50.157Z,2.83
2019-06-27T23:45:16.226Z,2.22
2019-06-27T23:47:42.300Z,2.85
2019-06-27T23:50:09.058Z,2.50
2019-06-27T23:52:35.100Z,2.60
2019-06-27T23:55:01.999Z,2.80
2019-06-27T23:57:28.058Z,2.90
2019-06-27T23:59:54.148Z,3.20
